Time;durP1;ratioP1;P1;durP2;ratioP2;P2;SDS_P1;SDS_P2;PMS_P1;PMS_P2;Temp;Humidity;BMP_temperature;BMP_pressure;BME280_temperature;BME280_humidity;BME280_pressure;Samples;Min_cycle;Max_cycle;Signal;HPM_P1;HPM_P2
2024/03/13 00:01:54;;;;;;;928.17;874.33;;;8.90;99.90;;;;;;5032255;28;20175;-70
2024/03/13 00:04:20;;;;;;;903.47;851.33;;;8.70;99.90;;;;;;5031993;28;20447;-70
2024/03/13 00:06:50;;;;;;;913.27;860.30;;;8.80;99.90;;;;;;5032239;28;20172;-70
2024/03/13 00:09:17;;;;;;;901.60;849.60;;;8.90;99.90;;;;;;5032095;28;20436;-70
2024/03/13 00:11:43;;;;;;;917.27;863.90;;;8.90;99.90;;;;;;5032099;28;20409;-70
2024/03/13 00:14:09;;;;;;;961.93;906.50;;;8.90;99.90;;;;;;5031781;28;20462;-69
2024/03/13 00:16:35;;;;;;;923.17;869.00;;;9.00;99.90;;;;;;5031983;28;20563;-69
2024/03/13 00:19:00;;;;;;;877.73;827.10;;;8.70;99.90;;;;;;5031881;28;20436;-69
2024/03/13 00:21:27;;;;;;;880.40;829.97;;;8.80;99.90;;;;;;5031934;28;20414;-70
2024/03/13 00:23:52;;;;;;;900.83;848.27;;;8.80;99.90;;;;;;5031603;28;20172;-69
2024/03/13 00:26:21;;;;;;;898.67;847.77;;;9.00;99.90;;;;;;5031696;28;20409;-69
2024/03/13 00:28:50;;;;;;;918.50;864.63;;;8.80;99.90;;;;;;5031747;28;20188;-70
2024/03/13 00:31:16;;;;;;;930.70;875.27;;;8.80;99.90;;;;;;5032084;28;20905;-69
2024/03/13 00:33:41;;;;;;;879.53;829.53;;;8.90;99.90;;;;;;5031624;28;20455;-69
2024/03/13 00:36:10;;;;;;;911.53;858.83;;;8.90;99.90;;;;;;5031482;28;20216;-70
2024/03/13 00:38:36;;;;;;;892.27;840.27;;;9.20;99.90;;;;;;5031604;28;20280;-70
2024/03/13 00:41:02;;;;;;;905.20;851.47;;;9.00;99.90;;;;;;5031727;28;20440;-70
2024/03/13 00:43:27;;;;;;;895.87;844.00;;;9.00;99.90;;;;;;5031574;28;20181;-69
2024/03/13 00:45:53;;;;;;;899.40;847.80;;;9.00;99.90;;;;;;5030269;28;20418;-69
2024/03/13 00:48:20;;;;;;;900.37;847.33;;;9.40;99.90;;;;;;5030685;28;20455;-69
2024/03/13 00:50:48;;;;;;;894.27;841.93;;;9.00;99.90;;;;;;5031362;28;20417;-70
2024/03/13 00:53:16;;;;;;;896.40;845.43;;;9.10;99.90;;;;;;5031413;28;20452;-69
2024/03/13 00:55:42;;;;;;;887.60;836.63;;;9.00;99.90;;;;;;5031167;28;20434;-70
2024/03/13 00:58:08;;;;;;;907.73;854.77;;;9.00;99.90;;;;;;5031415;28;20406;-70
2024/03/13 01:00:38;;;;;;;932.77;878.77;;;9.00;99.90;;;;;;5031185;28;20498;-69
2024/03/13 01:03:04;;;;;;;901.77;849.17;;;9.10;99.90;;;;;;5031467;28;20237;-70
2024/03/13 01:05:31;;;;;;;920.37;867.10;;;9.10;99.90;;;;;;5031168;28;20466;-69
2024/03/13 01:07:57;;;;;;;929.40;877.10;;;9.00;99.90;;;;;;5031540;28;20418;-69
2024/03/13 01:10:24;;;;;;;894.50;844.27;;;9.00;99.90;;;;;;5031332;28;20435;-69
2024/03/13 01:12:50;;;;;;;885.53;834.70;;;9.00;99.90;;;;;;5031130;28;20451;-69
2024/03/13 01:15:17;;;;;;;879.67;829.67;;;9.10;99.90;;;;;;5031109;28;20402;-69
2024/03/13 01:17:42;;;;;;;894.60;842.90;;;9.00;99.90;;;;;;5031201;28;20416;-69
2024/03/13 01:20:09;;;;;;;877.80;827.03;;;9.20;99.90;;;;;;5031269;28;20926;-69
2024/03/13 01:22:37;;;;;;;866.10;817.40;;;9.00;99.90;;;;;;5031257;28;20405;-69
2024/03/13 01:25:05;;;;;;;904.67;851.93;;;9.00;99.90;;;;;;5030862;28;20420;-69
2024/03/13 01:27:31;;;;;;;865.77;816.00;;;9.10;99.90;;;;;;5031287;28;20483;-70
2024/03/13 01:29:56;;;;;;;892.50;840.23;;;9.00;99.90;;;;;;5031145;28;20425;-69
2024/03/13 01:32:23;;;;;;;860.73;811.37;;;9.10;99.90;;;;;;5031080;28;20193;-69
2024/03/13 01:34:48;;;;;;;870.77;819.97;;;9.10;99.90;;;;;;5031142;28;20166;-70
2024/03/13 01:40:02;;;;;;;883.97;832.97;;;9.10;99.90;;;;;;5034265;28;20196;-70
2024/03/13 01:56:24;;;;;;;857.67;809.17;;;9.20;99.90;;;;;;5034991;28;20963;-70
2024/03/13 01:59:02;;;;;;;878.20;827.93;;;9.30;99.90;;;;;;5034575;28;20483;-69
2024/03/13 02:04:15;;;;;;;893.27;842.17;;;9.20;99.90;;;;;;5034626;28;20409;-69
2024/03/13 02:06:42;;;;;;;882.03;832.07;;;9.20;99.90;;;;;;5034612;28;20414;-70
2024/03/13 02:09:08;;;;;;;905.20;852.97;;;9.20;99.90;;;;;;5034571;28;20197;-70
2024/03/13 02:11:36;;;;;;;899.60;847.13;;;9.20;99.90;;;;;;5034571;28;20547;-69
2024/03/13 02:14:04;;;;;;;906.50;853.80;;;9.50;99.90;;;;;;5033911;28;20460;-70
2024/03/13 02:16:30;;;;;;;920.57;867.13;;;9.40;99.90;;;;;;5034263;28;20413;-69
2024/03/13 02:19:00;;;;;;;902.23;849.53;;;9.40;99.90;;;;;;5034165;28;20523;-69
2024/03/13 02:21:26;;;;;;;891.77;840.90;;;9.40;99.90;;;;;;5034136;28;20437;-69
2024/03/13 02:23:52;;;;;;;896.87;844.80;;;9.30;99.90;;;;;;5033664;28;20417;-69
2024/03/13 02:26:19;;;;;;;918.23;864.47;;;9.40;99.90;;;;;;5034044;28;20410;-70
2024/03/13 02:28:45;;;;;;;895.97;844.67;;;9.40;99.90;;;;;;5033838;28;20282;-69
2024/03/13 02:31:11;;;;;;;925.03;871.50;;;9.50;99.90;;;;;;5033945;28;20489;-69
2024/03/13 02:33:36;;;;;;;915.23;862.27;;;9.40;99.90;;;;;;5033781;28;20556;-69
2024/03/13 02:36:03;;;;;;;893.80;842.33;;;9.50;99.90;;;;;;5033630;28;20207;-69
2024/03/13 02:38:29;;;;;;;905.60;853.83;;;9.40;99.90;;;;;;5033636;28;20264;-69
2024/03/13 02:40:54;;;;;;;912.33;860.03;;;9.50;99.90;;;;;;5033735;28;20402;-70
2024/03/13 02:43:21;;;;;;;928.53;874.20;;;9.70;99.90;;;;;;5015817;28;20216;-69
2024/03/13 02:45:46;;;;;;;887.23;836.07;;;9.70;99.90;;;;;;5033433;28;20409;-69
2024/03/13 02:48:12;;;;;;;911.93;858.97;;;9.70;99.90;;;;;;5033644;28;20501;-69
2024/03/13 02:50:42;;;;;;;923.47;870.10;;;9.60;99.90;;;;;;5032286;28;20202;-70
2024/03/13 02:53:08;;;;;;;934.97;879.67;;;9.60;99.90;;;;;;5033380;28;20211;-69
2024/03/13 02:55:34;;;;;;;908.57;854.60;;;9.60;99.90;;;;;;5033073;28;20930;-69
2024/03/13 02:58:01;;;;;;;921.73;867.97;;;9.70;99.90;;;;;;5033412;28;20409;-69
2024/03/13 03:00:27;;;;;;;938.63;883.77;;;9.70;99.90;;;;;;5033309;28;20464;-70
2024/03/13 03:02:54;;;;;;;932.07;878.80;;;9.70;99.90;;;;;;5033324;28;20521;-69
2024/03/13 03:05:20;;;;;;;946.70;891.50;;;9.70;99.90;;;;;;5033154;28;20409;-69
2024/03/13 03:07:46;;;;;;;922.47;868.63;;;9.80;99.90;;;;;;5033207;28;20417;-69
2024/03/13 03:10:12;;;;;;;931.20;876.63;;;9.80;99.90;;;;;;5033050;28;20432;-69
2024/03/13 03:12:40;;;;;;;927.30;874.10;;;9.80;99.90;;;;;;5033084;28;20484;-70
2024/03/13 03:15:06;;;;;;;914.80;861.03;;;9.70;99.90;;;;;;5032899;28;20187;-69
2024/03/13 03:17:32;;;;;;;915.93;862.23;;;9.80;99.90;;;;;;5033134;28;20412;-70
2024/03/13 03:19:58;;;;;;;908.43;856.10;;;9.80;99.90;;;;;;5033038;28;20521;-69
2024/03/13 03:22:24;;;;;;;911.23;856.63;;;10.00;99.90;;;;;;5033081;28;20619;-68
2024/03/13 03:24:50;;;;;;;931.00;875.93;;;9.90;99.90;;;;;;5032796;28;20406;-69
2024/03/13 03:27:15;;;;;;;947.77;891.07;;;9.90;99.90;;;;;;5033019;28;20202;-70
2024/03/13 03:29:41;;;;;;;954.97;900.10;;;10.10;99.90;;;;;;5032920;28;20243;-70
2024/03/13 03:32:07;;;;;;;944.33;890.60;;;10.10;99.90;;;;;;5032859;28;20172;-70
2024/03/13 03:34:34;;;;;;;922.67;870.03;;;10.10;99.90;;;;;;5032600;28;20177;-69
2024/03/13 03:37:01;;;;;;;924.70;870.63;;;10.00;99.90;;;;;;5032696;28;20411;-69
2024/03/13 03:39:29;;;;;;;955.43;899.47;;;10.10;99.90;;;;;;5032505;28;20429;-69
2024/03/13 03:41:56;;;;;;;923.73;869.67;;;10.10;99.90;;;;;;5032585;28;20410;-69
2024/03/13 03:44:21;;;;;;;1048.07;979.73;;;10.20;99.90;;;;;;5032316;28;20413;-70
2024/03/13 03:46:48;;;;;;;983.83;924.57;;;10.20;99.90;;;;;;5032446;28;20780;-70
2024/03/13 03:49:13;;;;;;;940.13;883.70;;;10.20;99.90;;;;;;5032505;28;20226;-69
2024/03/13 03:51:39;;;;;;;973.67;915.73;;;10.20;99.90;;;;;;5032398;28;20431;-69
2024/03/13 03:54:05;;;;;;;982.50;923.53;;;10.30;99.90;;;;;;5032057;28;20192;-71
2024/03/13 03:56:32;;;;;;;954.43;897.83;;;10.30;99.90;;;;;;5032405;28;20192;-69
2024/03/13 03:58:57;;;;;;;965.97;908.37;;;10.20;99.90;;;;;;5032291;28;20205;-70
2024/03/13 04:01:27;;;;;;;958.50;902.00;;;10.20;99.90;;;;;;5031949;28;20464;-69
2024/03/13 04:03:52;;;;;;;966.57;909.10;;;10.30;99.90;;;;;;5032059;28;20172;-70
2024/03/13 04:06:18;;;;;;;1051.50;979.50;;;10.40;99.90;;;;;;5032278;28;20424;-70
2024/03/13 04:08:47;;;;;;;979.33;920.30;;;10.40;99.90;;;;;;5032145;28;20566;-70
2024/03/13 04:11:14;;;;;;;960.53;902.53;;;10.50;99.90;;;;;;5032298;28;20175;-70
2024/03/13 04:13:40;;;;;;;970.77;913.07;;;10.50;99.90;;;;;;5031958;28;20985;-70
2024/03/13 04:16:07;;;;;;;966.13;907.13;;;10.60;99.90;;;;;;5031805;28;20420;-71
2024/03/13 04:18:32;;;;;;;953.90;896.97;;;10.70;99.90;;;;;;5031813;28;20411;-70
2024/03/13 04:20:59;;;;;;;1022.27;955.70;;;10.70;99.90;;;;;;5031879;28;20426;-70
2024/03/13 04:23:24;;;;;;;948.87;890.87;;;10.70;99.90;;;;;;5032184;28;20445;-69
2024/03/13 04:25:52;;;;;;;953.07;896.03;;;10.70;99.90;;;;;;5031861;28;20438;-70
2024/03/13 04:28:20;;;;;;;962.57;903.10;;;10.70;99.90;;;;;;5032061;28;20193;-71
2024/03/13 04:30:46;;;;;;;1638.87;953.60;;;10.70;99.90;;;;;;5031816;28;20410;-70
2024/03/13 04:33:12;;;;;;;1677.20;987.87;;;10.80;99.90;;;;;;5031627;28;20465;-70
2024/03/13 04:35:38;;;;;;;1999.90;999.90;;;10.70;99.90;;;;;;5031259;28;20407;-70
2024/03/13 04:38:04;;;;;;;1664.07;977.07;;;10.70;99.90;;;;;;5031650;28;20460;-70
2024/03/13 04:40:30;;;;;;;1642.43;956.87;;;10.60;99.90;;;;;;5031734;28;20240;-70
2024/03/13 04:42:57;;;;;;;1645.50;959.67;;;10.60;99.90;;;;;;5031548;28;20873;-70
2024/03/13 04:45:22;;;;;;;1999.90;999.90;;;10.60;99.90;;;;;;5031442;28;20233;-69
2024/03/13 04:47:49;;;;;;;1999.90;999.90;;;10.60;99.90;;;;;;5031859;28;20891;-70
2024/03/13 04:50:15;;;;;;;1999.90;999.90;;;10.60;99.90;;;;;;5031347;28;20203;-69
2024/03/13 04:52:41;;;;;;;1999.90;999.90;;;10.60;99.90;;;;;;5031310;28;20470;-70
2024/03/13 04:55:07;;;;;;;1999.90;999.90;;;10.60;99.90;;;;;;5031163;28;20417;-70
2024/03/13 04:57:35;;;;;;;1999.90;999.90;;;10.50;99.90;;;;;;5031550;28;20411;-70
2024/03/13 05:00:01;;;;;;;1999.90;999.90;;;10.60;99.90;;;;;;5031183;28;20243;-69
2024/03/13 05:02:27;;;;;;;1999.90;999.90;;;10.60;99.90;;;;;;5031369;28;20536;-70
2024/03/13 05:04:53;;;;;;;1999.90;999.90;;;10.60;99.90;;;;;;5031001;28;20542;-69
2024/03/13 05:07:18;;;;;;;1999.90;999.90;;;10.60;99.90;;;;;;5031296;28;20506;-70
2024/03/13 05:09:47;;;;;;;1999.90;999.90;;;10.60;99.90;;;;;;5031233;28;20466;-70
2024/03/13 05:12:13;;;;;;;1999.90;999.90;;;10.60;99.90;;;;;;5031250;28;20172;-70
2024/03/13 05:14:39;;;;;;;1999.90;999.90;;;10.70;99.90;;;;;;5033953;28;20488;-70
2024/03/13 05:17:05;;;;;;;1999.90;999.90;;;10.70;99.90;;;;;;5035302;28;20168;-69
2024/03/13 05:19:30;;;;;;;1999.90;999.90;;;10.70;99.90;;;;;;5035159;28;20442;-70
2024/03/13 05:21:57;;;;;;;1999.90;999.90;;;10.70;99.90;;;;;;5035191;28;20202;-70
2024/03/13 05:24:24;;;;;;;1999.90;999.90;;;10.70;99.90;;;;;;5034779;28;20189;-70
2024/03/13 05:26:50;;;;;;;1999.90;999.90;;;10.70;99.90;;;;;;5035020;28;20418;-70
2024/03/13 05:29:15;;;;;;;1999.90;999.90;;;10.70;99.90;;;;;;5034905;28;20431;-69
2024/03/13 05:31:41;;;;;;;1999.90;999.90;;;10.70;99.90;;;;;;5035000;28;20512;-69
2024/03/13 05:34:09;;;;;;;1999.90;999.90;;;10.70;99.90;;;;;;5034597;28;20212;-70
2024/03/13 05:36:36;;;;;;;1999.90;999.90;;;10.80;99.90;;;;;;5034989;28;20176;-70
2024/03/13 05:39:02;;;;;;;1999.90;999.90;;;10.70;99.90;;;;;;5034751;28;20431;-68
2024/03/13 05:41:27;;;;;;;1999.90;999.90;;;10.70;99.90;;;;;;5034752;28;20403;-69
2024/03/13 05:43:53;;;;;;;1999.90;999.90;;;10.70;99.90;;;;;;5034468;28;20183;-69
2024/03/13 05:46:19;;;;;;;1999.90;999.90;;;10.70;99.90;;;;;;5034831;28;20699;-68
2024/03/13 05:48:47;;;;;;;1999.90;999.90;;;10.60;99.90;;;;;;5034651;28;20275;-68
2024/03/13 05:51:13;;;;;;;1071.70;990.23;;;10.60;99.90;;;;;;5034613;28;20180;-68
2024/03/13 05:53:38;;;;;;;1999.90;999.90;;;10.60;99.90;;;;;;5034363;28;20468;-68
2024/03/13 05:56:05;;;;;;;963.17;900.87;;;10.60;99.90;;;;;;5034338;28;20200;-68
2024/03/13 05:58:30;;;;;;;954.73;897.00;;;10.40;99.90;;;;;;5034672;28;20235;-68
2024/03/13 06:00:56;;;;;;;960.50;902.93;;;10.60;99.90;;;;;;5034425;28;20836;-68
2024/03/13 06:03:21;;;;;;;915.60;861.50;;;10.60;99.90;;;;;;5034399;28;20183;-68
2024/03/13 06:05:47;;;;;;;935.20;879.67;;;10.50;99.90;;;;;;5034177;28;20180;-69
2024/03/13 06:08:13;;;;;;;995.03;934.87;;;10.60;99.90;;;;;;5034543;28;20226;-68
2024/03/13 06:10:39;;;;;;;970.60;912.97;;;10.60;99.90;;;;;;5034279;28;20580;-69
2024/03/13 06:13:04;;;;;;;860.17;810.30;;;10.60;99.90;;;;;;5034230;28;20192;-68
2024/03/13 06:15:30;;;;;;;898.17;845.83;;;10.60;99.90;;;;;;5016423;28;20237;-68
2024/03/13 06:17:56;;;;;;;1671.23;980.30;;;10.60;99.90;;;;;;5034191;28;20251;-69
2024/03/13 06:20:22;;;;;;;1999.90;999.90;;;10.60;99.90;;;;;;5034186;28;20199;-69
2024/03/13 06:22:48;;;;;;;1356.27;975.43;;;10.60;99.90;;;;;;5034183;28;20444;-69
2024/03/13 06:25:14;;;;;;;808.47;762.30;;;10.60;99.90;;;;;;5033509;28;20211;-69
2024/03/13 06:27:40;;;;;;;1179.57;999.90;;;10.60;99.90;;;;;;5034115;28;20176;-69
2024/03/13 06:30:08;;;;;;;1201.47;999.90;;;10.60;99.90;;;;;;5033823;28;20434;-68
2024/03/13 06:32:34;;;;;;;898.43;844.87;;;10.60;99.90;;;;;;5034026;28;20883;-69
2024/03/13 06:35:02;;;;;;;989.00;926.23;;;10.70;99.90;;;;;;5033748;28;20414;-68
2024/03/13 06:37:28;;;;;;;857.13;806.67;;;10.60;99.90;;;;;;5033843;28;20978;-69
2024/03/13 06:39:54;;;;;;;890.97;839.03;;;10.70;99.90;;;;;;5033729;28;20434;-69
2024/03/13 06:42:20;;;;;;;1062.37;984.37;;;10.70;99.90;;;;;;5033789;28;20789;-69
2024/03/13 06:44:47;;;;;;;930.93;874.87;;;10.70;99.90;;;;;;5033401;28;20180;-69
2024/03/13 06:47:12;;;;;;;956.73;897.73;;;10.70;99.90;;;;;;5033745;28;20407;-68
2024/03/13 06:49:39;;;;;;;994.63;932.63;;;10.70;99.90;;;;;;5031939;28;20438;-68
2024/03/13 06:52:06;;;;;;;1018.97;952.47;;;10.70;99.90;;;;;;5032559;28;20169;-68
2024/03/13 06:54:31;;;;;;;1086.83;998.40;;;10.60;99.90;;;;;;5032389;28;20429;-69
2024/03/13 06:56:57;;;;;;;953.40;895.47;;;10.70;99.90;;;;;;5033341;28;20478;-69
2024/03/13 06:59:23;;;;;;;972.33;910.70;;;10.70;99.90;;;;;;5033274;28;20675;-68
2024/03/13 07:01:51;;;;;;;985.03;922.53;;;10.60;99.90;;;;;;5033672;28;20210;-69
2024/03/13 07:04:18;;;;;;;929.17;874.20;;;10.70;99.90;;;;;;5033071;28;20845;-69
2024/03/13 07:06:44;;;;;;;924.13;869.13;;;10.70;99.90;;;;;;5033331;28;20407;-68
2024/03/13 07:09:09;;;;;;;918.47;863.77;;;10.70;99.90;;;;;;5015430;28;20443;-68
2024/03/13 07:11:37;;;;;;;1647.87;958.97;;;10.70;99.90;;;;;;5033224;28;20421;-69
2024/03/13 07:14:02;;;;;;;1613.20;930.17;;;10.70;99.90;;;;;;5032716;28;20686;-68
2024/03/13 07:16:28;;;;;;;1999.90;999.90;;;10.70;99.90;;;;;;5033129;28;20405;-69
2024/03/13 07:18:58;;;;;;;1999.90;999.90;;;10.70;99.90;;;;;;5032919;28;20197;-68
2024/03/13 07:21:24;;;;;;;1999.90;999.90;;;10.70;99.90;;;;;;5033149;28;20194;-68
2024/03/13 07:23:49;;;;;;;1999.90;999.90;;;10.70;99.90;;;;;;5032771;28;20486;-68
2024/03/13 07:26:15;;;;;;;1999.90;999.90;;;10.80;99.90;;;;;;5032908;28;20259;-68
2024/03/13 07:28:41;;;;;;;1999.90;999.90;;;10.80;99.90;;;;;;5032679;28;20200;-69
2024/03/13 07:31:07;;;;;;;1999.90;999.90;;;10.80;99.90;;;;;;5032886;28;20195;-68
2024/03/13 07:33:33;;;;;;;1999.90;999.90;;;10.80;99.90;;;;;;5032821;28;20377;-68
2024/03/13 07:35:59;;;;;;;1999.90;999.90;;;10.80;99.90;;;;;;5031749;28;20895;-68
2024/03/13 07:38:24;;;;;;;1999.90;999.90;;;10.80;99.90;;;;;;5032621;28;20404;-69
2024/03/13 07:40:50;;;;;;;1999.90;999.90;;;10.80;99.90;;;;;;5032646;28;20210;-68
2024/03/13 07:43:16;;;;;;;1999.90;999.90;;;10.80;99.90;;;;;;5032543;28;20179;-69
2024/03/13 07:45:41;;;;;;;1999.90;999.90;;;10.90;99.90;;;;;;5032250;28;20184;-69
2024/03/13 07:48:10;;;;;;;1999.90;999.90;;;10.90;99.90;;;;;;5032666;28;20180;-69
2024/03/13 07:50:38;;;;;;;1999.90;999.90;;;10.90;99.90;;;;;;5032509;28;20183;-69
2024/03/13 07:53:04;;;;;;;1999.90;999.90;;;10.90;99.90;;;;;;5032327;28;20462;-68
2024/03/13 07:55:31;;;;;;;1999.90;999.90;;;10.90;99.90;;;;;;5032064;28;20404;-68
2024/03/13 07:57:56;;;;;;;1999.90;999.90;;;10.90;99.90;;;;;;5032566;28;20426;-68
2024/03/13 08:00:22;;;;;;;1999.90;999.90;;;11.40;99.90;;;;;;5032116;28;20458;-68
2024/03/13 08:02:48;;;;;;;1999.90;999.90;;;10.80;99.90;;;;;;5032298;28;20180;-68
2024/03/13 08:05:16;;;;;;;1999.90;999.90;;;10.80;99.90;;;;;;5031947;28;20242;-68
2024/03/13 08:07:44;;;;;;;1999.90;999.90;;;10.90;99.90;;;;;;5032220;28;20821;-68
2024/03/13 08:10:10;;;;;;;1999.90;999.90;;;10.90;99.90;;;;;;5032065;28;20433;-68
2024/03/13 08:12:36;;;;;;;1999.90;999.90;;;10.90;99.90;;;;;;5032005;28;20481;-68
2024/03/13 08:15:02;;;;;;;1999.90;999.90;;;10.90;99.90;;;;;;5031743;28;20400;-69
2024/03/13 08:17:28;;;;;;;1999.90;999.90;;;11.00;99.90;;;;;;5031981;28;20176;-68
2024/03/13 08:19:53;;;;;;;1999.90;999.90;;;11.00;99.90;;;;;;5031942;28;20984;-68
2024/03/13 08:22:19;;;;;;;1999.90;999.90;;;11.10;99.90;;;;;;5031840;28;20213;-68
2024/03/13 08:24:45;;;;;;;1999.90;999.90;;;11.10;99.90;;;;;;5031514;28;20191;-69
2024/03/13 08:27:11;;;;;;;1999.90;999.90;;;11.10;99.90;;;;;;5031762;28;20173;-68
2024/03/13 08:29:37;;;;;;;1999.90;999.90;;;11.10;99.90;;;;;;5031706;28;20186;-68
2024/03/13 08:32:06;;;;;;;1999.90;999.90;;;11.20;99.90;;;;;;5031674;28;20411;-68
2024/03/13 08:34:33;;;;;;;1999.90;999.90;;;11.20;99.90;;;;;;5027787;28;20466;-69
2024/03/13 08:36:58;;;;;;;1999.90;999.90;;;11.20;99.90;;;;;;5030605;28;20434;-68
2024/03/13 08:39:27;;;;;;;1999.90;999.90;;;11.20;99.90;;;;;;5031215;28;20428;-69
2024/03/13 08:41:54;;;;;;;1999.90;999.90;;;11.20;99.90;;;;;;5031097;28;20164;-68
2024/03/13 08:44:20;;;;;;;1999.90;999.90;;;11.30;99.90;;;;;;5031100;28;20408;-67
2024/03/13 08:46:45;;;;;;;1999.90;999.90;;;11.30;99.90;;;;;;5031362;28;20420;-67
2024/03/13 08:49:11;;;;;;;1999.90;999.90;;;11.40;99.90;;;;;;5030790;28;21052;-67
2024/03/13 08:51:36;;;;;;;1433.43;758.90;;;11.40;99.90;;;;;;5031440;28;20645;-67
2024/03/13 08:54:05;;;;;;;1999.90;999.90;;;11.60;99.90;;;;;;5028042;28;20232;-67
2024/03/13 08:56:37;;;;;;;1126.27;760.63;;;11.60;99.90;;;;;;5013776;28;20601;-67
2024/03/13 08:59:02;;;;;;;1999.90;999.90;;;11.70;99.90;;;;;;5031123;28;20435;-67
2024/03/13 09:01:28;;;;;;;1999.90;999.90;;;11.90;99.90;;;;;;5031608;28;20898;-67
2024/03/13 09:03:54;;;;;;;1999.90;999.90;;;12.00;99.90;;;;;;5030745;28;20178;-68
2024/03/13 09:06:19;;;;;;;1999.90;999.90;;;12.00;99.90;;;;;;5031258;28;20234;-68
2024/03/13 09:08:46;;;;;;;1999.90;999.90;;;12.00;99.90;;;;;;5031071;28;20576;-67
2024/03/13 09:11:18;;;;;;;536.43;506.93;;;12.00;99.90;;;;;;5030998;28;20593;-68
2024/03/13 09:13:44;;;;;;;547.43;518.87;;;12.10;99.90;;;;;;5031072;28;20950;-67
2024/03/13 09:16:14;;;;;;;1534.17;856.77;;;12.20;99.90;;;;;;5030862;28;20413;-68
2024/03/13 09:18:40;;;;;;;646.47;609.87;;;12.20;99.90;;;;;;5030598;28;20429;-67
2024/03/13 09:21:05;;;;;;;759.77;710.47;;;12.30;99.90;;;;;;5031018;28;20496;-67
2024/03/13 09:23:32;;;;;;;682.23;645.10;;;12.30;99.90;;;;;;5030948;28;20422;-67
2024/03/13 09:25:59;;;;;;;706.87;668.37;;;12.30;99.90;;;;;;5030420;28;20184;-68
2024/03/13 09:28:25;;;;;;;684.97;648.00;;;12.40;99.90;;;;;;5030848;28;20820;-67
2024/03/13 09:30:50;;;;;;;716.67;676.63;;;12.50;99.90;;;;;;5030891;28;20549;-69
2024/03/13 09:33:16;;;;;;;742.03;700.77;;;12.60;99.90;;;;;;5030612;28;20205;-68
2024/03/13 09:35:41;;;;;;;757.33;714.53;;;12.50;99.90;;;;;;5030524;28;20178;-68
2024/03/13 09:38:08;;;;;;;952.47;888.23;;;12.50;99.90;;;;;;5030833;28;20187;-68
2024/03/13 09:40:34;;;;;;;780.13;735.33;;;12.50;99.90;;;;;;5030508;28;20208;-67
2024/03/13 09:43:03;;;;;;;731.90;691.40;;;12.40;99.90;;;;;;5030285;28;20415;-67
2024/03/13 09:45:29;;;;;;;759.07;714.30;;;12.50;99.90;;;;;;5042725;28;20181;-67
2024/03/13 09:47:55;;;;;;;722.83;680.13;;;12.50;99.90;;;;;;5044304;28;20415;-66
2024/03/13 09:50:22;;;;;;;761.40;711.73;;;12.60;99.90;;;;;;5039894;28;20737;-67
2024/03/13 09:52:49;;;;;;;723.63;682.13;;;12.60;99.90;;;;;;5029588;28;20503;-67
2024/03/13 09:55:18;;;;;;;802.20;755.10;;;12.70;99.90;;;;;;5033997;28;20431;-67
2024/03/13 09:57:48;;;;;;;744.80;703.03;;;12.70;99.90;;;;;;5030280;28;20440;-67
2024/03/13 10:00:14;;;;;;;714.83;671.13;;;12.80;99.90;;;;;;5029377;28;21145;-67
2024/03/13 10:02:42;;;;;;;741.97;698.57;;;12.70;99.90;;;;;;5032176;28;20518;-67
2024/03/13 10:05:12;;;;;;;778.37;733.70;;;12.70;99.90;;;;;;5040238;28;20412;-67
2024/03/13 10:07:38;;;;;;;782.53;736.83;;;12.70;99.90;;;;;;5034109;28;20424;-66
2024/03/13 10:10:13;;;;;;;801.57;756.20;;;12.80;99.90;;;;;;5034000;28;20427;-67
2024/03/13 10:12:40;;;;;;;761.57;713.80;;;12.70;99.90;;;;;;5034184;28;20949;-66
2024/03/13 10:15:10;;;;;;;835.43;776.73;;;12.70;99.90;;;;;;5033323;28;20501;-67
2024/03/13 10:17:40;;;;;;;924.80;847.70;;;12.60;99.90;;;;;;5027922;28;20408;-67
2024/03/13 10:20:13;;;;;;;759.87;716.30;;;12.60;99.90;;;;;;5037203;28;20940;-68
2024/03/13 10:22:40;;;;;;;822.70;770.30;;;12.60;99.90;;;;;;5036312;28;20922;-67
2024/03/13 10:25:13;;;;;;;805.30;741.90;;;12.60;99.90;;;;;;5032606;28;20497;-67
2024/03/13 10:27:39;;;;;;;851.13;798.33;;;12.50;99.90;;;;;;5033818;28;20928;-67
2024/03/13 10:30:07;;;;;;;824.73;771.63;;;12.50;99.90;;;;;;5033638;28;20450;-67
2024/03/13 10:32:34;;;;;;;734.67;695.20;;;12.60;99.90;;;;;;5033333;28;20415;-67
2024/03/13 10:34:59;;;;;;;946.70;886.40;;;12.70;99.90;;;;;;5024816;28;20496;-67
2024/03/13 10:37:26;;;;;;;721.33;680.63;;;12.80;99.90;;;;;;5033672;28;20455;-68
2024/03/13 10:39:57;;;;;;;795.03;744.00;;;12.90;99.90;;;;;;5032875;28;20202;-68
2024/03/13 10:42:22;;;;;;;1114.70;752.43;;;12.90;99.90;;;;;;5032860;28;20433;-68
2024/03/13 10:44:48;;;;;;;742.70;700.23;;;12.90;99.90;;;;;;5032762;28;20419;-66
2024/03/13 10:47:13;;;;;;;1226.47;855.67;;;12.90;99.90;;;;;;5032772;28;20255;-66
2024/03/13 10:49:40;;;;;;;642.80;605.63;;;13.00;99.90;;;;;;5033344;28;20210;-67
2024/03/13 10:52:12;;;;;;;1552.70;869.93;;;13.00;99.90;;;;;;5033305;28;20173;-68
2024/03/13 10:54:37;;;;;;;839.23;779.70;;;13.10;99.90;;;;;;5038320;28;20469;-67
2024/03/13 10:57:04;;;;;;;1999.90;999.90;;;13.40;99.90;;;;;;5033067;28;20471;-67
2024/03/13 10:59:30;;;;;;;1553.47;864.80;;;13.60;99.90;;;;;;5033516;28;20203;-68
2024/03/13 11:01:56;;;;;;;648.93;592.43;;;13.70;99.90;;;;;;5033008;28;20414;-67
2024/03/13 11:04:26;;;;;;;1051.20;676.90;;;13.80;99.90;;;;;;5032752;28;20225;-67
2024/03/13 11:06:53;;;;;;;1520.57;840.53;;;13.80;99.90;;;;;;5033106;28;20500;-68
2024/03/13 11:09:21;;;;;;;867.10;816.60;;;13.70;99.90;;;;;;5032858;28;20426;-67
2024/03/13 11:11:56;;;;;;;847.27;799.47;;;13.70;99.90;;;;;;5036664;28;20449;-67
2024/03/13 11:14:25;;;;;;;874.13;816.83;;;13.60;99.90;;;;;;5033993;28;20472;-66
2024/03/13 11:16:57;;;;;;;757.33;717.03;;;13.60;99.90;;;;;;5032072;28;20786;-67
2024/03/13 11:19:29;;;;;;;749.87;708.87;;;13.50;99.90;;;;;;5032639;28;20475;-68
2024/03/13 11:21:57;;;;;;;675.53;640.63;;;13.50;99.90;;;;;;5033120;28;20414;-67
2024/03/13 11:24:25;;;;;;;767.33;726.33;;;13.50;99.90;;;;;;5014784;28;20421;-67
2024/03/13 11:27:03;;;;;;;834.23;787.73;;;13.60;99.90;;;;;;5032332;28;20443;-66
2024/03/13 11:29:43;;;;;;;801.57;756.17;;;13.60;99.90;;;;;;5032805;28;20428;-66
2024/03/13 11:32:11;;;;;;;775.03;731.73;;;13.50;99.90;;;;;;5036295;28;20428;-66
2024/03/13 11:34:37;;;;;;;762.77;722.60;;;13.50;99.90;;;;;;5036916;28;20987;-66
2024/03/13 11:37:04;;;;;;;749.57;709.53;;;13.50;99.90;;;;;;5033624;28;20440;-67
2024/03/13 11:39:31;;;;;;;883.80;818.90;;;13.40;99.90;;;;;;5026175;28;20465;-66
2024/03/13 11:42:14;;;;;;;745.63;702.67;;;13.50;99.90;;;;;;5032732;28;20414;-66
2024/03/13 11:44:49;;;;;;;847.57;795.83;;;13.50;99.90;;;;;;5032388;28;20421;-66
2024/03/13 11:47:16;;;;;;;754.67;713.87;;;13.50;99.90;;;;;;5032014;28;20414;-67
2024/03/13 11:49:42;;;;;;;675.50;640.40;;;13.40;99.90;;;;;;5032579;28;20832;-66
2024/03/13 11:52:15;;;;;;;925.87;852.40;;;13.40;99.90;;;;;;5032384;28;20499;-68
2024/03/13 11:54:43;;;;;;;790.87;743.57;;;13.40;99.90;;;;;;5031475;28;20402;-67
2024/03/13 11:57:13;;;;;;;728.97;688.97;;;13.40;99.90;;;;;;5032376;28;20445;-67
2024/03/13 11:59:52;;;;;;;751.13;709.80;;;13.40;99.90;;;;;;5031835;28;20508;-67
2024/03/13 12:02:30;;;;;;;821.87;769.20;;;13.50;99.90;;;;;;5031891;28;20401;-67
2024/03/13 12:05:04;;;;;;;803.13;758.30;;;13.50;99.90;;;;;;5031216;28;20402;-66
2024/03/13 12:07:36;;;;;;;764.57;716.50;;;13.50;99.90;;;;;;5032169;28;20431;-67
2024/03/13 12:10:02;;;;;;;650.03;615.13;;;13.50;99.90;;;;;;5031636;28;20437;-67
2024/03/13 12:12:28;;;;;;;644.00;607.17;;;13.50;99.90;;;;;;5032151;28;20818;-67
2024/03/13 12:14:55;;;;;;;678.10;639.53;;;13.50;99.90;;;;;;5031807;28;20411;-67
2024/03/13 12:17:20;;;;;;;774.20;726.77;;;13.50;99.90;;;;;;5031629;28;20179;-67
2024/03/13 12:19:47;;;;;;;927.17;867.77;;;13.50;99.90;;;;;;5031828;28;20884;-67
2024/03/13 12:22:13;;;;;;;830.50;780.40;;;13.60;99.90;;;;;;5031522;28;20191;-66
2024/03/13 12:24:39;;;;;;;664.80;627.47;;;13.50;99.90;;;;;;5030939;28;20911;-67
2024/03/13 12:27:06;;;;;;;665.50;629.90;;;13.50;99.90;;;;;;5031895;28;20419;-67